createdAt,value
2018-06-04T00:00:31.000Z,24.6
2018-06-04T00:10:31.000Z,24.56
2018-06-04T00:20:31.000Z,24.53
2018-06-04T00:30:31.000Z,24.51
2018-06-04T00:40:31.000Z,24.47
2018-06-04T00:50:31.000Z,24.45
2018-06-04T01:00:31.000Z,24.42
2018-06-04T01:10:31.000Z,24.38
2018-06-04T01:20:31.000Z,24.37
2018-06-04T01:30:31.000Z,24.34
2018-06-04T01:40:31.000Z,24.3
2018-06-04T01:50:31.000Z,24.28
2018-06-04T02:00:31.000Z,24.25
2018-06-04T02:10:31.000Z,24.22
2018-06-04T02:20:31.000Z,24.19
2018-06-04T02:30:31.000Z,24.14
2018-06-04T02:40:31.000Z,24.13
2018-06-04T02:50:31.000Z,24.09
2018-06-04T03:00:31.000Z,24.07
2018-06-04T03:10:31.000Z,24.04
2018-06-04T03:20:31.000Z,24.02
2018-06-04T03:30:31.000Z,24.01
2018-06-04T03:40:31.000Z,23.98
2018-06-04T03:50:31.000Z,23.97
2018-06-04T04:00:31.000Z,23.95
2018-06-04T04:10:31.000Z,23.94
2018-06-04T04:20:31.000Z,23.95
2018-06-04T04:30:32.000Z,23.94
2018-06-04T04:40:32.000Z,23.97
2018-06-04T04:50:32.000Z,23.98
2018-06-04T05:00:32.000Z,24.03
2018-06-04T05:10:32.000Z,24.09
2018-06-04T05:20:32.000Z,24.13
2018-06-04T05:30:32.000Z,24.19
2018-06-04T05:40:32.000Z,24.27
2018-06-04T05:50:32.000Z,24.36
2018-06-04T06:00:35.000Z,24.37
2018-06-04T06:10:32.000Z,24.45
2018-06-04T06:20:36.000Z,24.52
2018-06-04T06:30:32.000Z,24.54
2018-06-04T06:40:32.000Z,24.62
2018-06-04T07:00:33.000Z,24.77
2018-06-04T07:20:32.000Z,24.94
2018-06-04T07:30:32.000Z,25.03
2018-06-04T07:40:34.000Z,25.11
2018-06-04T07:50:33.000Z,25.22
2018-06-04T08:00:32.000Z,25.22
2018-06-04T08:10:32.000Z,25.33
2018-06-04T08:20:32.000Z,25.4
2018-06-04T08:30:33.000Z,25.56
2018-06-04T08:40:32.000Z,25.43
2018-06-04T08:50:32.000Z,25.57
2018-06-04T09:00:32.000Z,25.67
2018-06-04T09:10:32.000Z,25.78
2018-06-04T09:20:32.000Z,25.62
2018-06-04T09:30:32.000Z,25.72
2018-06-04T09:40:32.000Z,25.98
2018-06-04T09:50:32.000Z,25.74
2018-06-04T10:00:32.000Z,25.95
2018-06-04T10:10:32.000Z,25.88
2018-06-04T10:20:32.000Z,26.01
2018-06-04T10:30:32.000Z,26.14
2018-06-04T10:40:32.000Z,26.16
2018-06-04T10:50:32.000Z,25.96
2018-06-04T11:10:32.000Z,26.04
2018-06-04T11:20:32.000Z,26.34
2018-06-04T11:30:32.000Z,26.47
2018-06-04T11:40:32.000Z,26.44
2018-06-04T11:50:32.000Z,26.35
2018-06-04T12:00:32.000Z,26.42
2018-06-04T12:10:32.000Z,26.35
2018-06-04T12:20:32.000Z,26.49
2018-06-04T12:30:33.000Z,26.41
2018-06-04T12:40:33.000Z,26.64
2018-06-04T12:50:33.000Z,26.51
2018-06-04T13:00:33.000Z,26.75
2018-06-04T13:10:33.000Z,26.72
2018-06-04T13:20:33.000Z,26.57
2018-06-04T13:30:33.000Z,26.57
2018-06-04T13:40:33.000Z,26.25
2018-06-04T13:50:33.000Z,26.4
2018-06-04T14:00:33.000Z,26.62
2018-06-04T14:10:33.000Z,26.6
2018-06-04T14:20:33.000Z,26.63
2018-06-04T14:30:33.000Z,26.53
2018-06-04T14:40:33.000Z,26.52
2018-06-04T14:50:33.000Z,26.55
2018-06-04T15:00:33.000Z,26.45
2018-06-04T15:10:33.000Z,26.55
2018-06-04T15:20:33.000Z,26.24
2018-06-04T15:30:33.000Z,26.26
2018-06-04T15:40:33.000Z,26.34
2018-06-04T15:50:33.000Z,26.23
2018-06-04T16:00:34.000Z,26.39
2018-06-04T16:10:36.000Z,26.25
2018-06-04T16:20:33.000Z,26.28
2018-06-04T16:30:33.000Z,26.34
2018-06-04T16:40:33.000Z,26.38
2018-06-04T16:50:33.000Z,26.38
2018-06-04T17:00:33.000Z,26.13
2018-06-04T17:10:33.000Z,26.12
2018-06-04T17:20:33.000Z,26.02
2018-06-04T17:30:33.000Z,26.01
2018-06-04T17:40:33.000Z,26.06
2018-06-04T17:50:33.000Z,25.92
2018-06-04T18:00:33.000Z,25.93
2018-06-04T18:30:33.000Z,25.47
2018-06-04T18:40:33.000Z,25.53
2018-06-04T18:50:33.000Z,25.59
2018-06-04T19:00:33.000Z,25.49
2018-06-04T19:10:33.000Z,25.38
2018-06-04T19:20:36.000Z,25.32
2018-06-04T19:30:33.000Z,25.29
2018-06-04T19:40:33.000Z,25.24
2018-06-04T19:50:33.000Z,25.14
2018-06-04T20:00:33.000Z,25.03
2018-06-04T20:10:33.000Z,25.2
2018-06-04T20:30:34.000Z,25.09
2018-06-04T20:40:34.000Z,25.08
2018-06-04T20:50:34.000Z,25.05
2018-06-04T21:00:34.000Z,24.96
2018-06-04T21:10:34.000Z,24.87
2018-06-04T21:20:34.000Z,25.01
2018-06-04T21:30:34.000Z,25
2018-06-04T21:40:34.000Z,24.94
2018-06-04T21:50:34.000Z,24.93
2018-06-04T22:00:34.000Z,24.88
2018-06-04T22:10:35.000Z,24.78
2018-06-04T22:30:34.000Z,24.84
2018-06-04T22:40:34.000Z,24.74
2018-06-04T22:50:34.000Z,24.74
2018-06-04T23:00:34.000Z,24.72
2018-06-04T23:10:34.000Z,24.7
2018-06-04T23:20:34.000Z,24.66
2018-06-04T23:30:34.000Z,24.6
2018-06-04T23:40:34.000Z,24.62
2018-06-04T23:50:34.000Z,24.54
